Time;durP1;ratioP1;P1;durP2;ratioP2;P2;SDS_P1;SDS_P2;PMS_P1;PMS_P2;Temp;Humidity;BMP_temperature;BMP_pressure;BME280_temperature;BME280_humidity;BME280_pressure;Samples;Min_cycle;Max_cycle;Signal;HPM_P1;HPM_P2
2021/11/28 00:02:26;;;;;;;22.58;13.40;;;4.00;99.90;;;;;;5072037;28;20044;-92
2021/11/28 00:05:05;;;;;;;21.15;12.38;;;4.00;99.90;;;;;;5065966;28;20352;-92
2021/11/28 00:13:46;;;;;;;25.83;14.82;;;4.00;99.90;;;;;;5086832;28;20064;-91
2021/11/28 00:16:21;;;;;;;22.38;13.77;;;3.90;99.90;;;;;;5092991;28;20016;-92
2021/11/28 00:18:53;;;;;;;23.02;13.82;;;3.90;99.90;;;;;;5078213;28;20056;-92
2021/11/28 00:21:20;;;;;;;20.63;12.40;;;3.90;99.90;;;;;;5048854;28;20033;-92
2021/11/28 00:23:52;;;;;;;22.50;13.00;;;3.90;99.90;;;;;;5044518;28;20037;-92
2021/11/28 00:26:24;;;;;;;22.15;13.23;;;4.00;99.90;;;;;;5062926;28;20029;-94
2021/11/28 00:28:56;;;;;;;20.80;11.95;;;4.00;99.90;;;;;;5051713;28;20024;-92
2021/11/28 00:31:30;;;;;;;20.52;12.00;;;4.00;99.90;;;;;;5055967;28;20052;-92
2021/11/28 00:34:02;;;;;;;21.65;12.95;;;4.00;99.90;;;;;;5074779;28;20035;-94
2021/11/28 00:36:31;;;;;;;24.17;14.15;;;4.00;99.90;;;;;;5061627;28;20029;-93
2021/11/28 00:38:58;;;;;;;23.15;13.23;;;4.00;99.90;;;;;;5053413;28;20066;-92
2021/11/28 00:41:37;;;;;;;25.98;14.52;;;4.00;99.90;;;;;;5051477;28;20322;-94
2021/11/28 00:44:03;;;;;;;26.48;16.50;;;4.00;99.90;;;;;;5074500;28;20131;-93
2021/11/28 00:46:33;;;;;;;25.38;14.18;;;4.00;99.90;;;;;;5060431;28;20028;-94
2021/11/28 00:49:03;;;;;;;24.15;14.45;;;4.00;99.90;;;;;;5077765;28;20036;-95
2021/11/28 00:52:08;;;;;;;27.05;16.48;;;4.00;99.90;;;;;;5059104;28;20519;-95
2021/11/28 00:54:28;;;;;;;25.40;13.90;;;4.00;99.90;;;;;;5072504;28;20032;-93
2021/11/28 00:56:55;;;;;;;24.50;14.05;;;4.00;99.90;;;;;;5051421;28;20136;-94
2021/11/28 00:59:26;;;;;;;26.50;16.25;;;4.00;99.90;;;;;;5048551;28;20082;-95
2021/11/28 01:02:18;;;;;;;29.80;15.82;;;4.00;99.90;;;;;;5043573;28;20032;-93
2021/11/28 01:04:46;;;;;;;25.40;15.00;;;4.00;99.90;;;;;;5075059;28;20128;-93
2021/11/28 01:07:20;;;;;;;28.25;15.85;;;4.00;99.90;;;;;;5076959;28;20105;-95
2021/11/28 01:09:54;;;;;;;28.40;16.92;;;4.00;99.90;;;;;;5043401;28;20039;-94
2021/11/28 01:12:26;;;;;;;29.23;16.52;;;4.00;99.90;;;;;;5057129;28;20052;-94
2021/11/28 01:14:58;;;;;;;28.98;17.15;;;4.00;99.90;;;;;;5067372;28;20037;-94
2021/11/28 01:17:40;;;;;;;29.13;17.23;;;4.00;99.90;;;;;;5066781;28;20036;-94
2021/11/28 01:20:14;;;;;;;33.72;17.67;;;4.00;99.90;;;;;;5055187;28;20605;-92
2021/11/28 01:22:47;;;;;;;27.15;16.90;;;4.00;99.90;;;;;;5071465;28;20029;-92
2021/11/28 01:25:14;;;;;;;30.20;17.92;;;4.00;99.90;;;;;;5031919;28;20194;-91
2021/11/28 01:27:51;;;;;;;32.55;17.83;;;4.00;99.90;;;;;;5075379;28;20474;-93
2021/11/28 01:30:21;;;;;;;31.45;18.42;;;4.00;99.90;;;;;;5056868;28;20047;-92
2021/11/28 01:32:47;;;;;;;30.35;16.65;;;4.00;99.90;;;;;;5037267;28;20086;-93
2021/11/28 01:35:17;;;;;;;28.23;16.40;;;3.90;99.90;;;;;;5060321;28;20017;-93
2021/11/28 01:38:18;;;;;;;29.90;16.83;;;4.00;99.90;;;;;;4965482;27;4909567;-89
2021/11/28 01:40:44;;;;;;;29.38;15.93;;;4.00;99.90;;;;;;5079590;28;20016;-91
2021/11/28 01:43:15;;;;;;;29.70;16.70;;;4.00;99.90;;;;;;5096839;28;20082;-91
2021/11/28 01:45:42;;;;;;;30.73;17.48;;;4.00;99.90;;;;;;5097497;28;20538;-92
2021/11/28 01:48:10;;;;;;;31.40;16.73;;;4.00;99.90;;;;;;5094659;28;20032;-91
2021/11/28 01:50:37;;;;;;;27.23;15.55;;;4.00;99.90;;;;;;5093596;28;20108;-91
2021/11/28 01:53:07;;;;;;;30.42;17.23;;;4.00;99.90;;;;;;5096041;28;20063;-92
2021/11/28 01:55:34;;;;;;;32.03;16.60;;;4.00;99.90;;;;;;5097666;28;20055;-93
2021/11/28 01:58:01;;;;;;;28.85;16.10;;;4.00;99.90;;;;;;5100321;28;20020;-92
2021/11/28 02:00:31;;;;;;;31.88;17.00;;;4.00;99.90;;;;;;5097232;28;20054;-92
2021/11/28 02:02:58;;;;;;;32.88;17.17;;;4.00;99.90;;;;;;5096715;28;20020;-92
2021/11/28 02:05:24;;;;;;;28.75;16.48;;;4.00;99.90;;;;;;5098830;28;20020;-93
2021/11/28 02:07:51;;;;;;;32.13;16.98;;;4.00;99.90;;;;;;5098117;28;20453;-92
2021/11/28 02:10:17;;;;;;;29.13;16.67;;;4.00;99.90;;;;;;5097931;28;20653;-91
2021/11/28 02:12:45;;;;;;;34.35;18.70;;;4.00;99.90;;;;;;5097497;28;20020;-92
2021/11/28 02:15:11;;;;;;;31.90;17.63;;;4.00;99.90;;;;;;5099863;28;20020;-91
2021/11/28 02:17:37;;;;;;;30.25;17.65;;;3.90;99.90;;;;;;5103027;28;20083;-90
2021/11/28 02:20:08;;;;;;;32.13;18.00;;;3.90;99.90;;;;;;5112296;27;20020;-92
2021/11/28 02:22:37;;;;;;;30.17;17.55;;;3.90;99.90;;;;;;5101651;27;20077;-89
2021/11/28 02:25:05;;;;;;;35.55;18.50;;;3.90;99.90;;;;;;5118122;27;20006;-91
2021/11/28 02:27:31;;;;;;;31.23;16.80;;;3.90;99.90;;;;;;5116998;28;20028;-92
2021/11/28 02:29:57;;;;;;;33.90;18.20;;;3.90;99.90;;;;;;5116304;28;20027;-92
2021/11/28 02:32:22;;;;;;;35.50;19.35;;;3.90;99.90;;;;;;5116424;28;20027;-93
2021/11/28 02:34:48;;;;;;;32.83;18.15;;;3.90;99.90;;;;;;5114781;28;20040;-90
2021/11/28 02:37:13;;;;;;;34.20;18.17;;;3.90;99.90;;;;;;5113717;28;20054;-89
2021/11/28 02:39:39;;;;;;;32.08;17.50;;;3.90;99.90;;;;;;5114121;28;20024;-91
2021/11/28 02:42:05;;;;;;;34.25;18.75;;;3.90;99.90;;;;;;5114031;28;20015;-92
2021/11/28 02:44:34;;;;;;;32.65;18.08;;;3.90;99.90;;;;;;5113841;28;20004;-92
2021/11/28 02:47:02;;;;;;;34.63;18.27;;;3.90;99.90;;;;;;5102658;28;20019;-91
2021/11/28 02:49:27;;;;;;;32.60;17.67;;;3.90;99.90;;;;;;5087771;28;20020;-87
2021/11/28 02:51:53;;;;;;;35.67;18.88;;;3.90;99.90;;;;;;5087217;28;20026;-90
2021/11/28 02:54:20;;;;;;;38.03;20.30;;;3.90;99.90;;;;;;5088770;28;20059;-91
2021/11/28 02:56:52;;;;;;;36.85;19.00;;;3.90;99.90;;;;;;5073413;28;20044;-88
2021/11/28 02:59:18;;;;;;;31.30;17.02;;;3.90;99.90;;;;;;5087961;28;20485;-92
2021/11/28 03:01:43;;;;;;;40.17;20.20;;;3.80;99.90;;;;;;5085657;28;20096;-91
2021/11/28 03:04:12;;;;;;;33.85;18.35;;;3.90;99.90;;;;;;5084632;28;20024;-91
2021/11/28 03:06:41;;;;;;;38.13;19.88;;;3.80;99.90;;;;;;5082660;28;20036;-91
2021/11/28 03:09:10;;;;;;;38.97;20.42;;;3.80;99.90;;;;;;5083510;28;20103;-90
2021/11/28 03:11:36;;;;;;;35.33;19.15;;;3.80;99.90;;;;;;5085210;28;20028;-89
2021/11/28 03:14:02;;;;;;;35.10;18.42;;;3.80;99.90;;;;;;5066008;28;20040;-92
2021/11/28 03:16:29;;;;;;;32.75;17.00;;;3.80;99.90;;;;;;5083354;28;20393;-91
2021/11/28 03:18:55;;;;;;;34.30;18.17;;;3.80;99.90;;;;;;5082979;28;20047;-90
2021/11/28 03:21:24;;;;;;;33.47;17.13;;;3.80;99.90;;;;;;5083001;28;20039;-93
2021/11/28 03:23:51;;;;;;;32.00;16.50;;;3.80;99.90;;;;;;5087199;28;20008;-92
2021/11/28 03:26:27;;;;;;;36.63;16.55;;;3.90;99.90;;;;;;5067587;28;20028;-91
2021/11/28 03:29:08;;;;;;;31.40;17.33;;;3.80;99.90;;;;;;5069931;28;20027;-91
2021/11/28 03:31:37;;;;;;;30.52;15.88;;;3.80;99.90;;;;;;5081762;28;20106;-91
2021/11/28 03:34:07;;;;;;;28.83;15.48;;;3.90;99.90;;;;;;5083049;28;20024;-92
2021/11/28 03:36:35;;;;;;;34.42;17.45;;;3.90;99.90;;;;;;5072634;28;20043;-91
2021/11/28 03:39:03;;;;;;;32.88;17.23;;;3.90;99.90;;;;;;5085439;28;20020;-90
2021/11/28 03:41:31;;;;;;;37.80;18.27;;;3.80;99.90;;;;;;5063060;28;20029;-93
2021/11/28 03:43:58;;;;;;;36.20;18.77;;;3.80;99.90;;;;;;5073682;28;20031;-88
2021/11/28 03:46:28;;;;;;;32.60;17.45;;;3.80;99.90;;;;;;5073503;28;20469;-87
2021/11/28 03:48:57;;;;;;;31.90;17.55;;;3.80;99.90;;;;;;5070504;28;20070;-88
2021/11/28 03:51:28;;;;;;;31.60;17.33;;;3.80;99.90;;;;;;5087658;28;20032;-92
2021/11/28 03:53:54;;;;;;;36.35;18.27;;;3.80;99.90;;;;;;5049018;28;20039;-90
2021/11/28 03:56:20;;;;;;;34.70;17.17;;;3.80;99.90;;;;;;5094258;28;20040;-91
2021/11/28 03:58:47;;;;;;;32.03;16.30;;;3.80;99.90;;;;;;5069502;28;20024;-89
2021/11/28 04:01:15;;;;;;;31.17;15.63;;;3.80;99.90;;;;;;5084415;28;20028;-89
2021/11/28 04:03:44;;;;;;;32.47;15.63;;;3.90;99.90;;;;;;5073359;28;20069;-86
2021/11/28 04:06:10;;;;;;;31.42;16.13;;;3.80;99.90;;;;;;5087675;28;20512;-88
2021/11/28 04:08:37;;;;;;;29.70;16.40;;;3.80;99.90;;;;;;5087541;28;20020;-88
2021/11/28 04:11:03;;;;;;;29.52;14.55;;;3.80;99.90;;;;;;5089667;28;20032;-91
2021/11/28 04:13:30;;;;;;;31.50;15.73;;;3.80;99.90;;;;;;5088452;28;20035;-90
2021/11/28 04:15:56;;;;;;;26.95;13.73;;;3.80;99.90;;;;;;5085692;28;20016;-91
2021/11/28 04:18:24;;;;;;;27.58;14.48;;;3.80;99.90;;;;;;5086892;28;20028;-90
2021/11/28 04:20:50;;;;;;;28.30;14.55;;;3.80;99.90;;;;;;5085518;28;20028;-89
2021/11/28 04:23:16;;;;;;;27.55;14.63;;;3.80;99.90;;;;;;5088254;28;20077;-89
2021/11/28 04:25:42;;;;;;;26.50;14.45;;;3.90;99.90;;;;;;5088435;28;20017;-88
2021/11/28 04:28:08;;;;;;;30.50;14.77;;;3.80;99.90;;;;;;5083083;28;20494;-91
2021/11/28 04:30:35;;;;;;;34.38;16.35;;;3.90;99.90;;;;;;5084896;28;20032;-91
2021/11/28 04:33:02;;;;;;;30.23;15.55;;;3.90;99.90;;;;;;5068612;28;20032;-89
2021/11/28 04:35:30;;;;;;;31.80;16.60;;;3.80;99.90;;;;;;5086614;28;20016;-92
2021/11/28 04:37:55;;;;;;;29.45;15.13;;;3.80;99.90;;;;;;5080577;28;20063;-92
2021/11/28 04:40:21;;;;;;;30.50;16.05;;;3.80;99.90;;;;;;5079933;28;20017;-91
2021/11/28 04:42:47;;;;;;;29.98;15.77;;;3.80;99.90;;;;;;5078403;28;20062;-92
2021/11/28 04:45:13;;;;;;;29.58;15.13;;;3.80;99.90;;;;;;5078073;28;20024;-92
2021/11/28 04:47:39;;;;;;;29.15;15.02;;;3.80;99.90;;;;;;5077471;28;20056;-91
2021/11/28 04:50:08;;;;;;;26.90;14.73;;;3.80;99.90;;;;;;5078703;28;20028;-90
2021/11/28 04:52:34;;;;;;;26.20;13.93;;;3.90;99.90;;;;;;5078517;28;20462;-92
2021/11/28 04:55:00;;;;;;;27.63;14.45;;;3.80;99.90;;;;;;5078605;28;20031;-92
2021/11/28 04:57:25;;;;;;;28.48;15.30;;;3.80;99.90;;;;;;5079488;28;20032;-92
2021/11/28 04:59:51;;;;;;;27.35;14.23;;;3.80;99.90;;;;;;5078489;28;20016;-91
2021/11/28 05:02:17;;;;;;;30.20;14.65;;;3.80;99.90;;;;;;5078352;28;20066;-90
2021/11/28 05:04:43;;;;;;;27.48;14.00;;;3.80;99.90;;;;;;5078638;28;20112;-91
2021/11/28 05:07:08;;;;;;;27.98;13.90;;;3.80;99.90;;;;;;5077670;28;20047;-92
2021/11/28 05:09:34;;;;;;;28.73;14.38;;;3.90;99.90;;;;;;5078130;28;20020;-92
2021/11/28 05:12:00;;;;;;;28.27;14.65;;;3.90;99.90;;;;;;5079307;28;20249;-92
2021/11/28 05:14:26;;;;;;;28.63;14.85;;;3.80;99.90;;;;;;5079572;28;20020;-91
2021/11/28 05:16:52;;;;;;;27.42;14.70;;;3.90;99.90;;;;;;5078306;28;20060;-91
2021/11/28 05:19:18;;;;;;;30.17;15.80;;;3.80;99.90;;;;;;5080558;28;20040;-90
2021/11/28 05:21:44;;;;;;;29.65;15.02;;;3.80;99.90;;;;;;5078514;28;20020;-92
2021/11/28 05:24:10;;;;;;;31.40;16.17;;;3.80;99.90;;;;;;5078124;28;20028;-90
2021/11/28 05:26:36;;;;;;;26.00;14.25;;;3.80;99.90;;;;;;5077259;28;20120;-92
2021/11/28 05:29:02;;;;;;;28.20;14.25;;;3.80;99.90;;;;;;5077423;28;20046;-90
2021/11/28 05:31:28;;;;;;;26.67;14.13;;;3.80;99.90;;;;;;5078666;28;20096;-90
2021/11/28 05:33:54;;;;;;;28.52;14.45;;;3.80;99.90;;;;;;5077625;28;20052;-91
2021/11/28 05:36:21;;;;;;;28.40;14.60;;;3.80;99.90;;;;;;5077635;28;20029;-92
2021/11/28 05:38:46;;;;;;;28.52;13.98;;;3.80;99.90;;;;;;5081611;28;20043;-92
2021/11/28 05:41:12;;;;;;;30.58;15.27;;;3.70;99.90;;;;;;5080973;28;20024;-91
2021/11/28 05:43:41;;;;;;;31.17;15.77;;;3.70;99.90;;;;;;5080956;28;20544;-90
2021/11/28 05:46:07;;;;;;;28.65;15.30;;;3.60;99.90;;;;;;5080323;28;20028;-90
2021/11/28 05:48:33;;;;;;;27.80;16.25;;;3.60;99.90;;;;;;5081693;28;20028;-90
2021/11/28 05:50:59;;;;;;;29.17;14.60;;;3.50;99.90;;;;;;5081299;28;20051;-92
2021/11/28 05:53:25;;;;;;;27.02;14.20;;;3.50;99.90;;;;;;5081959;28;20016;-90
2021/11/28 05:55:52;;;;;;;28.90;15.60;;;3.40;99.90;;;;;;5081919;28;20028;-92
2021/11/28 05:58:18;;;;;;;30.25;17.02;;;3.40;99.90;;;;;;5084424;28;20020;-91
2021/11/28 06:00:44;;;;;;;28.88;15.45;;;3.30;99.90;;;;;;5086107;28;20016;-90
2021/11/28 06:03:10;;;;;;;28.88;15.68;;;3.30;99.90;;;;;;5083777;28;20499;-88
2021/11/28 06:05:40;;;;;;;28.80;15.68;;;3.30;99.90;;;;;;5083552;28;20092;-87
2021/11/28 06:08:07;;;;;;;27.33;14.15;;;3.20;99.90;;;;;;5091183;28;20020;-91
2021/11/28 06:10:33;;;;;;;24.92;13.85;;;3.10;99.90;;;;;;5086159;28;20119;-88
2021/11/28 06:12:59;;;;;;;24.35;13.27;;;3.10;99.90;;;;;;5087899;28;20042;-90
2021/11/28 06:15:24;;;;;;;24.90;13.02;;;3.00;99.90;;;;;;5089788;28;20078;-90
2021/11/28 06:17:50;;;;;;;23.05;12.57;;;3.00;99.90;;;;;;5087309;28;20026;-91
2021/11/28 06:20:15;;;;;;;20.90;12.07;;;3.00;99.90;;;;;;5082775;28;20028;-92
2021/11/28 06:22:41;;;;;;;23.55;12.45;;;2.90;99.90;;;;;;5082127;28;20423;-91
2021/11/28 06:25:07;;;;;;;20.27;11.57;;;2.80;99.90;;;;;;5090165;28;20027;-91
2021/11/28 06:27:33;;;;;;;20.98;12.02;;;2.80;99.90;;;;;;5086494;28;20025;-87
2021/11/28 06:29:59;;;;;;;20.88;11.98;;;2.70;99.90;;;;;;5085011;28;20492;-91
2021/11/28 06:32:24;;;;;;;23.70;12.00;;;2.70;99.90;;;;;;5085107;28;20507;-91
2021/11/28 06:34:51;;;;;;;19.92;11.85;;;2.60;99.90;;;;;;5087046;28;20097;-90
2021/11/28 06:37:16;;;;;;;20.52;11.43;;;2.60;99.90;;;;;;5088880;28;20051;-92
2021/11/28 06:39:42;;;;;;;20.25;11.73;;;2.60;99.90;;;;;;5085350;28;20020;-92
2021/11/28 06:42:08;;;;;;;18.75;11.40;;;2.50;99.90;;;;;;5084743;28;20036;-91
2021/11/28 06:44:33;;;;;;;22.17;11.63;;;2.50;99.90;;;;;;5083220;28;20160;-89
2021/11/28 06:47:00;;;;;;;21.85;12.55;;;2.50;99.90;;;;;;5084060;28;20064;-92
2021/11/28 06:49:28;;;;;;;21.35;11.57;;;2.40;99.90;;;;;;5085063;28;20020;-93
2021/11/28 06:51:56;;;;;;;20.15;11.45;;;2.40;99.90;;;;;;5085291;28;20020;-92
2021/11/28 06:54:23;;;;;;;20.83;11.82;;;2.30;99.90;;;;;;5084070;28;20017;-93
2021/11/28 06:56:49;;;;;;;21.08;11.50;;;2.30;99.90;;;;;;5084984;28;20060;-93
2021/11/28 06:59:15;;;;;;;21.23;11.93;;;2.20;99.90;;;;;;5084473;28;20055;-91
2021/11/28 07:01:42;;;;;;;25.23;14.18;;;2.20;99.90;;;;;;5083352;28;20477;-92
2021/11/28 07:04:08;;;;;;;24.98;13.65;;;2.20;99.90;;;;;;5083945;28;20503;-92
2021/11/28 07:06:33;;;;;;;32.85;17.83;;;2.20;99.90;;;;;;5083607;28;20020;-91
2021/11/28 07:09:01;;;;;;;41.83;19.88;;;2.30;99.90;;;;;;5082893;28;20377;-92
2021/11/28 07:11:26;;;;;;;40.75;17.80;;;2.40;99.90;;;;;;5083576;28;20020;-91
2021/11/28 07:13:52;;;;;;;36.80;17.73;;;2.40;99.90;;;;;;5083976;28;20014;-91
2021/11/28 07:16:19;;;;;;;36.40;17.42;;;2.60;99.90;;;;;;5083285;28;20071;-91
2021/11/28 07:18:45;;;;;;;37.97;17.08;;;2.60;99.90;;;;;;5083936;28;20024;-90
2021/11/28 07:21:12;;;;;;;42.95;17.63;;;2.70;99.90;;;;;;5100648;28;20091;-88
2021/11/28 07:23:38;;;;;;;38.47;17.73;;;2.70;99.90;;;;;;5093830;28;20032;-88
2021/11/28 07:26:05;;;;;;;37.90;17.13;;;2.80;99.90;;;;;;5094188;28;20020;-87
2021/11/28 07:28:31;;;;;;;41.25;18.58;;;2.80;99.90;;;;;;5093849;28;20023;-89
2021/11/28 07:30:57;;;;;;;38.13;16.92;;;2.80;99.90;;;;;;5093960;28;20021;-89
2021/11/28 07:33:22;;;;;;;48.25;19.05;;;2.90;99.90;;;;;;5094070;28;20004;-89
2021/11/28 07:35:48;;;;;;;48.30;21.25;;;2.90;99.90;;;;;;5092980;28;20028;-88
2021/11/28 07:38:14;;;;;;;75.03;25.73;;;2.90;99.90;;;;;;5083076;28;20052;-91
2021/11/28 07:40:39;;;;;;;49.15;21.67;;;2.90;99.90;;;;;;5083729;28;20016;-90
2021/11/28 07:43:05;;;;;;;47.90;21.60;;;2.90;99.90;;;;;;5101483;28;20027;-91
2021/11/28 07:45:31;;;;;;;47.15;19.27;;;2.80;99.90;;;;;;5083795;28;20078;-91
2021/11/28 07:47:57;;;;;;;42.85;19.08;;;2.90;99.90;;;;;;5087467;28;20027;-90
2021/11/28 07:50:23;;;;;;;44.33;18.95;;;2.90;99.90;;;;;;5087219;28;20008;-90
2021/11/28 07:52:48;;;;;;;42.28;19.20;;;2.90;99.90;;;;;;5083664;28;20473;-93
2021/11/28 07:55:14;;;;;;;57.42;22.27;;;2.90;99.90;;;;;;5084891;28;20122;-90
2021/11/28 07:57:40;;;;;;;46.35;20.13;;;2.90;99.90;;;;;;5085234;28;20036;-93
2021/11/28 08:00:06;;;;;;;50.80;21.33;;;2.90;99.90;;;;;;5083730;28;20012;-91
2021/11/28 08:02:32;;;;;;;39.67;19.42;;;2.90;99.90;;;;;;5084027;28;20024;-91
2021/11/28 08:04:58;;;;;;;42.60;19.75;;;2.80;99.90;;;;;;5084150;28;20055;-91
2021/11/28 08:07:23;;;;;;;44.28;19.50;;;2.80;99.90;;;;;;5084144;28;20031;-91
2021/11/28 08:09:49;;;;;;;37.78;17.73;;;2.90;99.90;;;;;;5109399;28;20012;-91
2021/11/28 08:12:18;;;;;;;41.33;18.52;;;2.80;99.90;;;;;;5098537;28;20015;-91
2021/11/28 08:14:44;;;;;;;34.17;16.58;;;2.80;99.90;;;;;;5097155;28;20061;-91
2021/11/28 08:17:21;;;;;;;41.72;17.83;;;2.80;99.90;;;;;;5093772;28;20031;-94
2021/11/28 08:19:47;;;;;;;35.63;16.42;;;2.80;99.90;;;;;;5098097;28;20035;-93
2021/11/28 08:22:13;;;;;;;39.90;17.33;;;2.80;99.90;;;;;;5098713;28;20012;-95
2021/11/28 08:24:43;;;;;;;39.72;17.92;;;2.80;99.90;;;;;;5098579;28;20036;-93
2021/11/28 08:27:09;;;;;;;38.60;17.02;;;2.80;99.90;;;;;;5088905;28;20026;-93
2021/11/28 08:29:38;;;;;;;38.50;18.77;;;2.80;99.90;;;;;;5083288;28;20338;-93
2021/11/28 08:32:10;;;;;;;39.58;19.10;;;2.70;99.90;;;;;;5083820;28;20027;-94
2021/11/28 08:34:45;;;;;;;39.50;17.73;;;2.70;99.90;;;;;;5084076;28;20027;-95
2021/11/28 08:37:19;;;;;;;37.20;16.92;;;2.70;99.90;;;;;;5078814;28;20507;-92
2021/11/28 08:39:46;;;;;;;34.95;14.68;;;2.70;99.90;;;;;;5080205;28;20013;-91
2021/11/28 08:42:13;;;;;;;34.15;14.95;;;2.80;99.90;;;;;;5078947;28;20048;-90
2021/11/28 08:44:39;;;;;;;41.35;18.35;;;2.80;99.90;;;;;;5078161;28;20069;-91
2021/11/28 08:47:07;;;;;;;36.58;16.38;;;2.80;99.90;;;;;;5076275;28;20040;-92
2021/11/28 08:49:43;;;;;;;35.38;15.43;;;2.80;99.90;;;;;;5077936;28;20025;-91
2021/11/28 08:52:14;;;;;;;47.67;18.77;;;2.90;99.90;;;;;;5060151;28;20024;-92
2021/11/28 08:54:43;;;;;;;41.88;19.40;;;3.00;99.90;;;;;;5078241;28;20123;-92
2021/11/28 08:57:08;;;;;;;36.72;16.95;;;2.90;99.90;;;;;;5077258;28;20028;-91
2021/11/28 08:59:37;;;;;;;46.30;20.42;;;2.90;99.90;;;;;;5077806;28;20100;-92
2021/11/28 09:02:05;;;;;;;45.15;19.73;;;3.00;99.90;;;;;;5077304;28;20052;-92
2021/11/28 09:07:20;;;;;;;44.00;19.73;;;3.10;99.90;;;;;;5161476;22;20245;-91
2021/11/28 09:09:47;;;;;;;43.53;18.80;;;3.10;99.90;;;;;;5063443;28;20047;-92
2021/11/28 09:12:32;;;;;;;43.25;17.80;;;3.10;99.90;;;;;;5063151;28;20068;-91
2021/11/28 09:20:51;;;;;;;45.03;19.33;;;3.40;99.90;;;;;;5011903;28;20038;-92
2021/11/28 09:25:45;;;;;;;47.33;18.42;;;3.40;99.90;;;;;;5020010;28;20033;-92
2021/11/28 09:28:14;;;;;;;40.92;17.55;;;3.40;99.90;;;;;;5003014;28;20018;-94
2021/11/28 09:30:55;;;;;;;;;;;;;;;;;;;;;
2021/11/28 09:33:21;;;;;;;39.20;17.13;;;3.80;99.90;;;;;;5021679;28;20085;-93
2021/11/28 09:36:05;;;;;;;43.35;17.73;;;3.90;99.90;;;;;;5004353;28;20450;-90
2021/11/28 09:43:42;;;;;;;48.17;20.63;;;4.10;99.90;;;;;;5061803;28;20053;-93
2021/11/28 09:46:52;;;;;;;46.40;20.60;;;4.10;99.90;;;;;;5067780;28;20009;-89
2021/11/28 09:49:28;;;;;;;41.60;18.00;;;4.10;99.90;;;;;;5066475;22;20091;-92
2021/11/28 09:51:58;;;;;;;44.72;19.48;;;4.30;99.90;;;;;;5070957;28;20016;-92
2021/11/28 09:54:24;;;;;;;46.28;21.55;;;4.30;99.90;;;;;;5047257;28;20096;-92
2021/11/28 09:56:51;;;;;;;48.83;22.50;;;4.30;99.90;;;;;;5075196;28;20028;-91
2021/11/28 09:59:20;;;;;;;47.35;20.90;;;4.30;99.90;;;;;;5063068;28;20032;-92
2021/11/28 10:01:51;;;;;;;43.55;20.15;;;4.30;99.90;;;;;;5074381;28;20078;-92
2021/11/28 10:04:29;;;;;;;43.30;20.80;;;4.40;99.90;;;;;;5077646;28;20029;-91
2021/11/28 10:09:52;;;;;;;53.53;24.13;;;4.60;99.90;;;;;;5080641;28;20072;-92
2021/11/28 10:12:25;;;;;;;57.67;25.33;;;4.60;99.90;;;;;;5074301;28;20028;-93
2021/11/28 10:14:56;;;;;;;;;;;4.50;99.90;;;;;;5064453;28;20043;-91
2021/11/28 10:17:30;;;;;;;45.78;21.55;;;4.50;99.90;;;;;;5045287;28;19909;-93
2021/11/28 10:19:59;;;;;;;46.97;21.13;;;4.50;99.90;;;;;;5070261;28;20036;-93
2021/11/28 10:23:12;;;;;;;45.53;22.02;;;4.50;99.90;;;;;;5083044;28;20201;-92
2021/11/28 10:26:00;;;;;;;45.17;21.13;;;4.40;99.90;;;;;;5071533;28;20064;-94
2021/11/28 10:28:54;;;;;;;45.88;20.63;;;4.40;99.90;;;;;;5099799;28;20034;-94
2021/11/28 10:31:23;;;;;;;42.53;19.35;;;4.40;99.90;;;;;;5081571;28;20024;-95
2021/11/28 10:33:52;;;;;;;46.08;23.35;;;4.40;99.90;;;;;;5082971;28;20221;-94
2021/11/28 10:36:34;;;;;;;49.05;23.73;;;4.40;99.90;;;;;;5101039;28;20041;-92
2021/11/28 10:39:24;;;;;;;53.08;25.25;;;4.40;99.90;;;;;;5074715;28;20032;-92
2021/11/28 10:42:22;;;;;;;47.35;22.83;;;4.50;99.90;;;;;;5049982;28;20067;-96
2021/11/28 10:52:41;;;;;;;40.67;20.30;;;4.40;99.90;;;;;;4913421;29;20042;-96
2021/11/28 10:55:53;;;;;;;45.53;22.05;;;4.40;99.90;;;;;;4994692;28;20150;-95
2021/11/28 10:58:43;;;;;;;;;;;;;;;;;;;;;
2021/11/28 11:01:42;;;;;;;;;;;;;;;;;;;;;
2021/11/28 11:04:41;;;;;;;43.45;20.88;;;4.40;99.90;;;;;;4981151;28;20094;-95
2021/11/28 11:07:25;;;;;;;41.05;19.58;;;4.50;99.90;;;;;;4986244;28;20036;-93
2021/11/28 11:10:04;;;;;;;37.03;18.55;;;4.60;99.90;;;;;;5052395;28;20033;-93
2021/11/28 11:12:35;;;;;;;41.53;20.25;;;4.70;99.90;;;;;;5058375;28;20014;-93
2021/11/28 11:15:02;;;;;;;37.92;19.58;;;4.90;99.90;;;;;;5071756;22;20056;-92
2021/11/28 11:17:32;;;;;;;45.22;22.42;;;4.90;99.90;;;;;;5118909;23;20048;-93
2021/11/28 11:19:59;;;;;;;43.10;21.48;;;4.90;99.90;;;;;;5011308;28;20033;-91
2021/11/28 11:22:30;;;;;;;46.78;22.55;;;4.80;99.90;;;;;;5045468;28;20053;-94
2021/11/28 11:43:40;;;;;;;39.63;19.70;;;5.20;99.90;;;;;;4959180;28;20040;-95
2021/11/28 11:47:25;;;;;;;;;;;;;;;;;;;;;
2021/11/28 11:51:10;;;;;;;;;;;;;;;;;;;;;
2021/11/28 11:54:46;;;;;;;;;;;;;;;;;;;;;
2021/11/28 11:57:39;;;;;;;34.60;16.70;;;5.80;99.90;;;;;;4871604;29;20133;-96
2021/11/28 12:01:26;;;;;;;30.02;14.27;;;5.90;99.90;;;;;;4881670;29;20032;-92
2021/11/28 12:04:03;;;;;;;28.35;14.38;;;5.80;99.90;;;;;;5074853;22;20060;-91
2021/11/28 12:13:52;;;;;;;24.13;12.63;;;5.70;99.90;;;;;;5075145;22;20063;-91
2021/11/28 12:16:48;;;;;;;21.63;11.52;;;5.70;99.90;;;;;;5051487;28;20022;-94
2021/11/28 12:23:28;;;;;;;26.05;14.85;;;5.80;99.90;;;;;;5014997;22;20083;-95
2021/11/28 12:26:47;;;;;;;;;;;;;;;;;;;;;
2021/11/28 12:29:40;;;;;;;25.77;14.25;;;5.60;99.90;;;;;;5056645;28;20053;-94
2021/11/28 12:32:26;;;;;;;23.65;13.00;;;5.60;99.90;;;;;;5042138;28;20031;-95
2021/11/28 12:35:06;;;;;;;19.92;11.70;;;5.50;99.90;;;;;;5040953;28;20023;-94
2021/11/28 12:37:46;;;;;;;19.35;11.50;;;5.40;99.90;;;;;;5045484;28;20025;-93
2021/11/28 12:40:52;;;;;;;17.75;9.10;;;5.40;99.90;;;;;;5043229;28;20021;-92
2021/11/28 12:43:31;;;;;;;13.52;8.15;;;5.30;99.90;;;;;;5050298;28;20025;-96
2021/11/28 12:49:00;;;;;;;;;;;;;;;;;;;;;
2021/11/28 12:52:00;;;;;;;10.48;5.68;;;5.40;99.90;;;;;;5203922;22;20138;-92
2021/11/28 12:55:32;;;;;;;6.13;3.40;;;5.50;99.90;;;;;;5255362;22;20031;-92
2021/11/28 12:58:46;;;;;;;6.50;3.00;;;5.40;99.90;;;;;;5044802;28;20064;-90
2021/11/28 13:01:58;;;;;;;4.55;2.47;;;5.20;99.90;;;;;;5033280;28;20037;-92
2021/11/28 13:04:49;;;;;;;3.83;1.83;;;5.10;99.90;;;;;;5039781;28;20017;-93
2021/11/28 13:07:36;;;;;;;4.20;2.30;;;5.00;99.90;;;;;;5019187;28;20030;-92
2021/11/28 13:10:19;;;;;;;3.95;2.03;;;5.00;99.90;;;;;;5018577;28;20041;-93
2021/11/28 13:12:46;;;;;;;5.18;2.22;;;4.90;99.90;;;;;;5025089;28;20038;-92
2021/11/28 13:15:46;;;;;;;3.65;2.05;;;4.90;99.90;;;;;;5009079;28;20046;-89
2021/11/28 13:18:35;;;;;;;4.65;1.60;;;5.00;99.90;;;;;;5022454;28;20486;-91
2021/11/28 13:21:28;;;;;;;2.13;1.20;;;5.00;99.90;;;;;;5044598;28;20036;-90
2021/11/28 13:23:59;;;;;;;1.80;1.05;;;4.90;99.90;;;;;;5019826;28;20101;-90
2021/11/28 13:26:31;;;;;;;1.75;0.80;;;4.90;99.90;;;;;;5022276;28;20034;-92
2021/11/28 13:29:20;;;;;;;1.25;0.63;;;4.80;99.90;;;;;;5021899;28;20022;-91
2021/11/28 13:31:48;;;;;;;1.42;0.52;;;4.80;99.90;;;;;;5002143;28;20034;-94
2021/11/28 13:34:16;;;;;;;1.23;0.50;;;4.70;99.90;;;;;;5004337;28;20037;-90
2021/11/28 13:36:48;;;;;;;1.60;0.45;;;4.70;99.90;;;;;;5020266;28;20483;-92
2021/11/28 13:39:17;;;;;;;1.00;0.40;;;4.60;99.90;;;;;;5017315;28;20495;-91
2021/11/28 13:44:42;;;;;;;1.35;0.40;;;4.50;99.90;;;;;;5070976;23;20206;-94
2021/11/28 13:47:14;;;;;;;0.50;0.30;;;4.50;99.90;;;;;;5067948;28;20049;-93
2021/11/28 13:49:46;;;;;;;1.23;0.50;;;4.50;99.90;;;;;;5040958;28;20139;-93
2021/11/28 13:52:17;;;;;;;0.63;0.23;;;4.40;99.90;;;;;;5055608;28;20024;-91
2021/11/28 13:54:59;;;;;;;;;;;;;;;;;;;;;
2021/11/28 13:57:38;;;;;;;0.73;0.30;;;4.40;99.90;;;;;;5064678;28;20502;-95
2021/11/28 14:00:19;;;;;;;1.85;0.63;;;4.50;99.90;;;;;;5057255;28;20091;-93
2021/11/28 14:03:08;;;;;;;0.65;0.30;;;4.50;99.90;;;;;;5052578;28;20034;-94
2021/11/28 14:05:33;;;;;;;1.13;0.40;;;4.50;99.90;;;;;;5054775;28;20434;-91
2021/11/28 14:08:02;;;;;;;1.25;0.40;;;4.50;99.90;;;;;;5052766;28;20032;-92
2021/11/28 14:10:42;;;;;;;0.63;0.32;;;4.50;99.90;;;;;;5055109;28;20476;-91
2021/11/28 14:13:14;;;;;;;0.90;0.50;;;4.50;99.90;;;;;;5059632;28;20043;-92
2021/11/28 14:15:53;;;;;;;1.23;0.53;;;4.50;99.90;;;;;;5053293;28;20043;-91
2021/11/28 14:18:22;;;;;;;1.52;0.47;;;4.50;99.90;;;;;;5040738;28;20025;-91
2021/11/28 14:20:50;;;;;;;1.70;0.40;;;4.50;99.90;;;;;;5055727;28;20112;-92
2021/11/28 14:23:32;;;;;;;1.52;0.60;;;4.40;99.90;;;;;;5071914;28;20009;-91
2021/11/28 14:26:15;;;;;;;0.60;0.30;;;4.40;99.90;;;;;;5064095;28;20096;-92
2021/11/28 14:28:49;;;;;;;0.50;0.30;;;4.40;99.90;;;;;;5072498;28;20013;-94